createdAt,value
2019-04-22T00:02:05.669Z,4.40
2019-04-22T00:04:46.314Z,4.47
2019-04-22T00:07:22.157Z,4.10
2019-04-22T00:10:03.349Z,4.47
2019-04-22T00:14:54.220Z,4.78
2019-04-22T00:20:04.329Z,4.08
2019-04-22T00:25:03.442Z,4.28
2019-04-22T00:27:34.326Z,4.15
2019-04-22T00:30:15.482Z,4.87
2019-04-22T00:32:37.898Z,4.05
2019-04-22T00:35:06.016Z,4.42
2019-04-22T00:37:43.735Z,4.40
2019-04-22T00:40:14.398Z,4.10
2019-04-22T00:42:41.322Z,3.98
2019-04-22T00:45:15.632Z,3.65
2019-04-22T00:47:39.997Z,3.52
2019-04-22T00:50:19.257Z,4.25
2019-04-22T00:52:38.796Z,3.98
2019-04-22T00:55:16.448Z,4.37
2019-04-22T00:57:42.134Z,4.78
2019-04-22T01:00:11.911Z,3.98
2019-04-22T01:02:49.725Z,5.03
2019-04-22T01:05:15.190Z,4.78
2019-04-22T01:07:43.178Z,6.33
2019-04-22T01:10:19.017Z,4.67
2019-04-22T01:12:43.999Z,4.53
2019-04-22T01:15:15.457Z,4.62
2019-04-22T01:17:44.993Z,4.72
2019-04-22T01:20:39.063Z,4.70
2019-04-22T01:22:47.689Z,5.00
2019-04-22T01:25:17.650Z,4.85
2019-04-22T01:27:41.560Z,6.00
2019-04-22T01:30:07.407Z,5.22
2019-04-22T01:32:34.040Z,5.22
2019-04-22T01:35:13.361Z,5.65
2019-04-22T01:37:46.079Z,5.03
2019-04-22T01:40:25.321Z,6.05
2019-04-22T01:43:03.843Z,6.30
2019-04-22T01:45:26.473Z,5.95
2019-04-22T01:48:00.623Z,6.20
2019-04-22T01:50:27.750Z,6.47
2019-04-22T01:52:59.172Z,7.85
2019-04-22T01:57:53.528Z,6.03
2019-04-22T02:00:25.125Z,8.00
2019-04-22T02:02:57.501Z,6.05
2019-04-22T02:05:24.328Z,6.08
2019-04-22T02:08:02.474Z,7.22
2019-04-22T02:10:36.013Z,7.10
2019-04-22T02:13:01.967Z,6.40
2019-04-22T02:15:34.606Z,6.05
2019-04-22T02:18:01.233Z,6.80
2019-04-22T02:20:31.553Z,7.78
2019-04-22T02:34:04.605Z,6.72
2019-04-22T02:41:26.199Z,7.40
2019-04-22T02:43:56.871Z,6.28
2019-04-22T02:51:16.815Z,7.05
2019-04-22T02:54:17.238Z,7.10
2019-04-22T02:59:00.106Z,6.35
2019-04-22T03:01:23.506Z,6.60
2019-04-22T03:06:29.552Z,8.38
2019-04-22T03:08:48.673Z,7.17
2019-04-22T03:11:22.317Z,7.25
2019-04-22T03:18:55.595Z,6.85
2019-04-22T03:21:22.027Z,6.83
2019-04-22T03:28:51.238Z,5.62
2019-04-22T03:37:04.574Z,5.05
2019-04-22T03:39:20.316Z,5.12
2019-04-22T03:42:05.730Z,5.03
2019-04-22T03:44:26.995Z,5.25
2019-04-22T03:46:32.588Z,5.60
2019-04-22T03:49:18.997Z,5.33
2019-04-22T03:51:52.066Z,4.97
2019-04-22T03:54:12.785Z,6.03
2019-04-22T03:57:10.431Z,5.78
2019-04-22T03:59:20.079Z,5.50
2019-04-22T04:04:20.996Z,4.65
2019-04-22T04:06:50.524Z,5.22
2019-04-22T04:09:09.404Z,5.05
2019-04-22T04:11:53.837Z,6.60
2019-04-22T04:14:09.311Z,6.05
2019-04-22T04:16:45.938Z,5.72
2019-04-22T04:21:53.557Z,6.60
2019-04-22T04:24:25.854Z,6.45
2019-04-22T04:29:37.732Z,6.15
2019-04-22T04:31:43.309Z,6.20
2019-04-22T04:36:42.191Z,6.45
2019-04-22T04:49:17.725Z,5.92
2019-04-22T04:51:48.403Z,6.72
2019-04-22T04:59:22.834Z,7.22
2019-04-22T05:02:00.114Z,6.85
2019-04-22T05:07:00.015Z,6.78
2019-04-22T05:09:19.717Z,7.12
2019-04-22T05:14:23.227Z,6.92
2019-04-22T05:16:51.525Z,6.28
2019-04-22T05:21:51.160Z,6.28
2019-04-22T05:24:29.740Z,7.72
2019-04-22T05:26:52.818Z,6.53
2019-04-22T05:29:23.472Z,5.50
2019-04-22T05:31:52.300Z,6.33
2019-04-22T05:34:17.452Z,5.87
2019-04-22T05:36:47.767Z,6.90
2019-04-22T05:39:17.144Z,5.75
2019-04-22T05:41:48.658Z,6.80
2019-04-22T05:44:14.502Z,5.97
2019-04-22T05:46:49.487Z,6.42
2019-04-22T05:49:19.245Z,5.35
2019-04-22T05:52:05.256Z,5.50
2019-04-22T05:54:22.920Z,5.10
2019-04-22T05:57:08.310Z,5.70
2019-04-22T05:59:22.790Z,5.25
2019-04-22T06:02:04.782Z,5.08
2019-04-22T06:04:39.940Z,6.45
2019-04-22T06:06:49.926Z,5.60
2019-04-22T06:09:27.496Z,6.15
2019-04-22T06:11:46.429Z,6.03
2019-04-22T06:14:20.393Z,5.97
2019-04-22T06:16:57.158Z,7.58
2019-04-22T06:19:27.802Z,5.95
2019-04-22T06:21:57.905Z,6.15
2019-04-22T06:24:42.026Z,5.53
2019-04-22T06:27:08.015Z,6.95
2019-04-22T06:29:41.738Z,5.90
2019-04-22T06:37:07.338Z,5.65
2019-04-22T06:39:34.178Z,5.95
2019-04-22T06:42:08.135Z,6.25
2019-04-22T06:44:37.025Z,6.75
2019-04-22T06:47:05.310Z,5.85
2019-04-22T06:49:35.527Z,5.33
2019-04-22T06:52:08.093Z,5.50
2019-04-22T06:54:32.652Z,5.22
2019-04-22T06:57:06.147Z,6.08
2019-04-22T06:59:37.650Z,6.33
2019-04-22T07:02:11.749Z,5.92
2019-04-22T07:04:36.432Z,6.15
2019-04-22T07:07:08.383Z,5.37
2019-04-22T07:12:11.627Z,5.62
2019-04-22T07:14:35.257Z,5.50
2019-04-22T07:17:08.623Z,4.62
2019-04-22T07:19:38.325Z,5.17
2019-04-22T07:22:15.188Z,4.55
2019-04-22T07:27:10.536Z,5.80
2019-04-22T07:32:39.272Z,5.03
2019-04-22T07:34:47.402Z,5.10
2019-04-22T07:37:27.817Z,3.87
2019-04-22T07:39:43.447Z,5.12
2019-04-22T07:42:12.632Z,4.03
2019-04-22T07:44:47.683Z,4.33
2019-04-22T07:47:18.481Z,4.60
2019-04-22T07:49:46.959Z,4.03
2019-04-22T07:52:20.687Z,4.35
2019-04-22T07:54:46.808Z,3.80
2019-04-22T07:57:22.733Z,4.47
2019-04-22T07:59:50.475Z,4.00
2019-04-22T08:02:16.287Z,5.22
2019-04-22T08:05:01.945Z,4.90
2019-04-22T08:07:17.750Z,4.90
2019-04-22T08:09:58.043Z,4.70
2019-04-22T08:12:16.682Z,4.65
2019-04-22T08:14:45.943Z,4.58
2019-04-22T08:17:51.874Z,4.25
2019-04-22T08:19:50.648Z,4.35
2019-04-22T08:22:14.333Z,4.78
2019-04-22T08:24:51.321Z,5.42
2019-04-22T08:27:17.909Z,5.90
2019-04-22T08:29:59.803Z,6.42
2019-04-22T08:32:21.701Z,5.22
2019-04-22T08:34:47.425Z,4.72
2019-04-22T08:39:55.139Z,4.90
2019-04-22T08:42:35.227Z,5.45
2019-04-22T08:45:05.952Z,4.78
2019-04-22T08:47:27.742Z,6.35
2019-04-22T08:52:30.276Z,5.67
2019-04-22T08:54:57.067Z,6.25
2019-04-22T08:57:34.694Z,5.53
2019-04-22T08:59:59.210Z,5.70
2019-04-22T09:02:34.560Z,6.87
2019-04-22T09:04:58.344Z,6.17
2019-04-22T09:07:30.282Z,6.17
2019-04-22T09:10:02.152Z,7.35
2019-04-22T09:12:46.938Z,7.67
2019-04-22T09:15:01.080Z,7.65
2019-04-22T09:17:40.280Z,8.20
2019-04-22T09:20:18.459Z,7.12
2019-04-22T09:22:40.996Z,7.78
2019-04-22T09:25:11.699Z,7.95
2019-04-22T09:27:44.258Z,8.28
2019-04-22T09:30:17.011Z,8.78
2019-04-22T09:32:45.184Z,8.15
2019-04-22T09:35:10.175Z,9.08
2019-04-22T09:37:48.317Z,8.28
2019-04-22T09:40:17.133Z,9.03
2019-04-22T09:42:48.708Z,8.75
2019-04-22T09:45:10.240Z,8.53
2019-04-22T09:47:53.881Z,7.70
2019-04-22T09:50:15.305Z,8.03
2019-04-22T09:52:51.448Z,8.95
2019-04-22T09:55:18.258Z,8.33
2019-04-22T09:57:44.963Z,7.58
2019-04-22T10:00:15.525Z,7.92
2019-04-22T10:02:57.564Z,8.28
2019-04-22T10:05:20.902Z,8.45
2019-04-22T10:07:56.125Z,8.30
2019-04-22T10:10:36.582Z,8.88
2019-04-22T10:12:46.719Z,9.78
2019-04-22T10:15:19.707Z,8.68
2019-04-22T10:17:54.506Z,8.28
2019-04-22T10:20:24.962Z,8.35
2019-04-22T10:22:51.923Z,8.13
2019-04-22T10:25:25.224Z,7.58
2019-04-22T10:27:55.210Z,9.60
2019-04-22T10:30:37.161Z,9.03
2019-04-22T10:32:48.129Z,9.00
2019-04-22T10:35:17.103Z,9.05
2019-04-22T10:37:42.747Z,7.95
2019-04-22T10:40:19.609Z,8.48
2019-04-22T10:42:49.491Z,7.47
2019-04-22T10:45:18.557Z,8.70
2019-04-22T10:47:48.023Z,7.97
2019-04-22T10:50:18.967Z,9.50
2019-04-22T10:52:47.784Z,9.75
2019-04-22T10:55:17.286Z,8.23
2019-04-22T10:57:46.401Z,8.38
2019-04-22T11:00:15.836Z,8.23
2019-04-22T11:02:45.711Z,8.10
2019-04-22T11:05:16.482Z,8.13
2019-04-22T11:07:51.841Z,9.90
2019-04-22T11:10:34.594Z,7.47
2019-04-22T11:12:47.161Z,9.13
2019-04-22T11:15:18.073Z,6.97
2019-04-22T11:17:47.380Z,7.70
2019-04-22T11:20:17.658Z,7.95
2019-04-22T11:22:46.708Z,7.45
2019-04-22T11:25:16.110Z,8.63
2019-04-22T11:27:44.901Z,7.53
2019-04-22T11:30:18.257Z,6.22
2019-04-22T11:32:46.531Z,6.17
2019-04-22T11:35:16.147Z,5.97
2019-04-22T11:37:46.486Z,8.38
2019-04-22T11:40:22.267Z,5.17
2019-04-22T11:42:46.267Z,6.03
2019-04-22T11:45:15.522Z,8.43
2019-04-22T11:47:45.439Z,13.68
2019-04-22T11:50:15.680Z,7.80
2019-04-22T11:52:44.781Z,8.28
2019-04-22T11:55:15.039Z,8.45
2019-04-22T11:57:44.792Z,12.35
2019-04-22T12:00:14.739Z,10.05
2019-04-22T12:02:44.813Z,6.62
2019-04-22T12:05:14.274Z,6.92
2019-04-22T12:07:42.983Z,7.15
2019-04-22T12:10:22.823Z,5.90
2019-04-22T12:12:44.709Z,6.05
2019-04-22T12:15:15.088Z,7.05
2019-04-22T12:17:44.747Z,6.08
2019-04-22T12:20:18.381Z,5.87
2019-04-22T12:22:48.924Z,5.72
2019-04-22T12:25:32.346Z,6.78
2019-04-22T12:27:52.835Z,6.80
2019-04-22T12:30:23.485Z,5.90
2019-04-22T12:32:52.725Z,6.30
2019-04-22T12:35:21.922Z,5.40
2019-04-22T12:37:55.872Z,6.53
2019-04-22T12:40:33.816Z,6.05
2019-04-22T12:42:53.475Z,5.83
2019-04-22T12:45:22.617Z,5.92
2019-04-22T12:47:51.389Z,5.00
2019-04-22T12:50:26.068Z,6.15
2019-04-22T12:52:57.034Z,5.97
2019-04-22T12:55:21.889Z,6.37
2019-04-22T12:57:53.866Z,5.62
2019-04-22T13:00:22.470Z,5.65
2019-04-22T13:02:51.471Z,6.22
2019-04-22T13:05:20.745Z,6.83
2019-04-22T13:07:49.628Z,5.65
2019-04-22T13:10:20.152Z,6.28
2019-04-22T13:12:49.034Z,5.75
2019-04-22T13:15:18.310Z,5.60
2019-04-22T13:17:59.499Z,7.10
2019-04-22T13:20:19.835Z,6.22
2019-04-22T13:22:48.623Z,5.72
2019-04-22T13:25:17.875Z,6.78
2019-04-22T13:27:46.839Z,5.78
2019-04-22T13:30:18.720Z,5.85
2019-04-22T13:32:49.042Z,5.37
2019-04-22T13:35:19.974Z,5.58
2019-04-22T13:37:48.734Z,5.50
2019-04-22T13:40:19.213Z,4.83
2019-04-22T13:42:49.191Z,5.60
2019-04-22T13:45:18.391Z,5.25
2019-04-22T13:48:08.731Z,5.80
2019-04-22T13:53:34.324Z,5.78
2019-04-22T13:55:50.236Z,5.28
2019-04-22T13:58:03.226Z,5.80
2019-04-22T14:00:34.488Z,5.95
2019-04-22T14:03:22.522Z,5.12
2019-04-22T14:06:04.944Z,5.65
2019-04-22T14:08:35.265Z,5.00
2019-04-22T14:11:20.688Z,4.80
2019-04-22T14:13:34.542Z,5.40
2019-04-22T14:16:04.779Z,5.20
2019-04-22T14:18:34.913Z,5.40
2019-04-22T14:21:05.055Z,5.78
2019-04-22T14:23:34.844Z,4.65
2019-04-22T14:26:04.991Z,5.85
2019-04-22T14:28:35.482Z,5.72
2019-04-22T14:31:06.709Z,5.37
2019-04-22T14:33:36.257Z,6.65
2019-04-22T14:36:05.314Z,6.50
2019-04-22T14:38:34.665Z,5.65
2019-04-22T14:41:05.753Z,6.45
2019-04-22T14:44:26.552Z,5.42
2019-04-22T14:46:36.462Z,6.03
2019-04-22T14:48:59.000Z,6.00
2019-04-22T14:51:23.933Z,5.20
2019-04-22T14:53:55.417Z,6.20
2019-04-22T14:56:08.354Z,6.12
2019-04-22T14:58:37.422Z,4.87
2019-04-22T15:01:06.957Z,5.75
2019-04-22T15:03:39.930Z,5.87
2019-04-22T15:06:06.435Z,6.67
2019-04-22T15:08:35.293Z,6.42
2019-04-22T15:11:05.870Z,5.83
2019-04-22T15:13:35.655Z,7.12
2019-04-22T15:16:23.796Z,5.70
2019-04-22T15:18:55.698Z,6.08
2019-04-22T15:21:28.967Z,7.10
2019-04-22T15:24:00.519Z,6.72
2019-04-22T15:26:30.702Z,7.08
2019-04-22T15:28:59.760Z,6.12
2019-04-22T15:31:29.179Z,5.15
2019-04-22T15:33:58.389Z,5.92
2019-04-22T15:36:28.307Z,6.50
2019-04-22T15:38:57.577Z,6.83
2019-04-22T15:41:26.436Z,5.72
2019-04-22T15:43:55.176Z,5.70
2019-04-22T15:46:23.820Z,5.08
2019-04-22T15:48:53.745Z,5.05
2019-04-22T15:51:22.664Z,5.92
2019-04-22T15:53:51.959Z,5.12
2019-04-22T15:56:21.087Z,4.97
2019-04-22T15:58:51.327Z,5.08
2019-04-22T16:01:27.471Z,6.33
2019-04-22T16:03:50.585Z,5.28
2019-04-22T16:06:19.972Z,5.85
2019-04-22T16:08:49.839Z,6.10
2019-04-22T16:11:19.925Z,5.95
2019-04-22T16:13:48.801Z,6.12
2019-04-22T16:16:18.630Z,5.20
2019-04-22T16:18:48.595Z,6.33
2019-04-22T16:21:30.261Z,5.22
2019-04-22T16:23:56.549Z,5.22
2019-04-22T16:26:28.354Z,5.50
2019-04-22T16:28:58.133Z,5.83
2019-04-22T16:31:27.583Z,5.95
2019-04-22T16:33:56.411Z,5.95
2019-04-22T16:36:25.073Z,6.62
2019-04-22T16:39:02.720Z,6.20
2019-04-22T16:41:32.754Z,7.05
2019-04-22T16:44:04.564Z,7.37
2019-04-22T16:46:33.793Z,8.20
2019-04-22T16:49:03.407Z,6.83
2019-04-22T16:51:33.831Z,8.08
2019-04-22T16:54:04.076Z,6.90
2019-04-22T16:56:35.075Z,7.62
2019-04-22T16:59:04.430Z,6.75
2019-04-22T17:01:34.946Z,8.05
2019-04-22T17:04:12.329Z,7.33
2019-04-22T17:06:45.928Z,7.30
2019-04-22T17:09:17.524Z,7.50
2019-04-22T17:11:45.742Z,8.13
2019-04-22T17:14:20.472Z,7.10
2019-04-22T17:16:46.332Z,7.37
2019-04-22T17:19:15.368Z,8.05
2019-04-22T17:21:45.595Z,8.45
2019-04-22T17:24:14.511Z,8.13
2019-04-22T17:26:44.261Z,9.15
2019-04-22T17:29:14.391Z,10.10
2019-04-22T17:31:48.460Z,9.18
2019-04-22T17:34:13.898Z,9.45
2019-04-22T17:36:42.783Z,7.80
2019-04-22T17:39:22.772Z,9.68
2019-04-22T17:41:59.266Z,9.40
2019-04-22T17:44:38.136Z,8.63
2019-04-22T17:46:58.540Z,10.93
2019-04-22T17:49:48.980Z,9.45
2019-04-22T17:54:50.149Z,9.08
2019-04-22T17:57:21.622Z,9.17
2019-04-22T17:59:56.830Z,8.08
2019-04-22T18:02:22.128Z,9.05
2019-04-22T18:04:40.052Z,8.93
2019-04-22T18:07:29.582Z,8.88
2019-04-22T18:12:34.000Z,8.63
2019-04-22T18:14:59.585Z,9.83
2019-04-22T18:17:32.409Z,9.90
2019-04-22T18:19:53.139Z,10.13
2019-04-22T18:22:19.747Z,8.98
2019-04-22T18:24:54.140Z,9.08
2019-04-22T18:27:40.334Z,9.75
2019-04-22T18:29:51.518Z,9.73
2019-04-22T18:32:20.224Z,10.38
2019-04-22T18:34:51.602Z,10.00
2019-04-22T18:37:41.371Z,10.32
2019-04-22T18:40:15.030Z,11.75
2019-04-22T18:42:41.957Z,10.45
2019-04-22T18:45:29.590Z,8.88
2019-04-22T18:47:44.227Z,10.32
2019-04-22T18:50:22.936Z,10.40
2019-04-22T18:52:57.961Z,10.58
2019-04-22T18:55:26.481Z,10.20
2019-04-22T18:58:01.061Z,10.25
2019-04-22T19:00:18.522Z,9.83
2019-04-22T19:02:56.948Z,9.33
2019-04-22T19:05:34.663Z,9.60
2019-04-22T19:08:18.692Z,9.70
2019-04-22T19:10:55.751Z,8.83
2019-04-22T19:13:49.130Z,7.97
2019-04-22T19:15:54.167Z,9.83
2019-04-22T19:18:25.640Z,9.93
2019-04-22T19:20:51.307Z,8.85
2019-04-22T19:23:20.740Z,9.18
2019-04-22T19:25:43.779Z,8.90
2019-04-22T19:28:27.415Z,7.72
2019-04-22T19:30:51.267Z,9.40
2019-04-22T19:33:22.274Z,8.55
2019-04-22T19:35:43.309Z,8.53
2019-04-22T19:38:12.250Z,7.15
2019-04-22T19:41:03.412Z,7.87
2019-04-22T19:43:28.296Z,8.23
2019-04-22T19:45:55.783Z,7.70
2019-04-22T19:48:39.709Z,9.30
2019-04-22T19:51:05.829Z,8.05
2019-04-22T19:53:35.646Z,7.62
2019-04-22T19:55:54.091Z,7.92
2019-04-22T19:58:27.787Z,8.28
2019-04-22T20:01:02.382Z,7.78
2019-04-22T20:03:53.005Z,7.72
2019-04-22T20:06:18.112Z,7.97
2019-04-22T20:08:44.138Z,7.25
2019-04-22T20:11:17.054Z,7.60
2019-04-22T20:13:47.945Z,8.65
2019-04-22T20:16:04.200Z,7.05
2019-04-22T20:18:48.680Z,7.97
2019-04-22T20:21:17.899Z,7.35
2019-04-22T20:23:38.280Z,8.13
2019-04-22T20:26:07.311Z,8.23
2019-04-22T20:28:46.875Z,8.38
2019-04-22T20:31:22.070Z,8.73
2019-04-22T20:33:51.330Z,7.70
2019-04-22T20:36:39.473Z,8.15
2019-04-22T20:38:45.386Z,8.53
2019-04-22T20:41:17.429Z,8.75
2019-04-22T20:43:54.062Z,9.03
2019-04-22T20:46:22.324Z,8.10
2019-04-22T20:48:55.381Z,8.65
2019-04-22T20:51:28.222Z,9.03
2019-04-22T20:53:56.709Z,8.33
2019-04-22T20:56:18.792Z,7.92
2019-04-22T20:58:51.690Z,9.93
2019-04-22T21:01:15.799Z,8.65
2019-04-22T21:03:41.915Z,8.28
2019-04-22T21:06:22.907Z,8.48
2019-04-22T21:08:56.020Z,8.00
2019-04-22T21:11:20.709Z,8.48
2019-04-22T21:13:54.249Z,8.08
2019-04-22T21:16:31.455Z,9.30
2019-04-22T21:18:46.134Z,9.80
2019-04-22T21:21:25.123Z,9.05
2019-04-22T21:23:51.424Z,10.05
2019-04-22T21:26:24.143Z,8.83
2019-04-22T21:28:53.223Z,10.53
2019-04-22T21:31:30.623Z,10.00
2019-04-22T21:34:02.254Z,10.05
2019-04-22T21:36:35.580Z,11.88
2019-04-22T21:38:57.865Z,10.78
2019-04-22T21:41:25.028Z,10.90
2019-04-22T21:43:58.201Z,9.23
2019-04-22T21:46:30.948Z,10.05
2019-04-22T21:48:59.949Z,9.60
2019-04-22T21:51:42.072Z,11.28
2019-04-22T21:54:04.237Z,11.15
2019-04-22T21:56:42.249Z,10.38
2019-04-22T21:59:11.048Z,10.63
2019-04-22T22:01:50.059Z,10.43
2019-04-22T22:04:15.259Z,10.55
2019-04-22T22:06:35.953Z,9.78
2019-04-22T22:09:15.295Z,11.28
2019-04-22T22:11:40.069Z,10.40
2019-04-22T22:14:11.617Z,11.03
2019-04-22T22:16:34.839Z,10.90
2019-04-22T22:19:11.698Z,10.28
2019-04-22T22:21:51.415Z,13.03
2019-04-22T22:24:14.825Z,12.33
2019-04-22T22:26:45.101Z,11.88
2019-04-22T22:29:18.380Z,10.68
2019-04-22T22:31:47.240Z,13.00
2019-04-22T22:34:19.173Z,12.82
2019-04-22T22:36:40.343Z,11.43
2019-04-22T22:39:08.723Z,12.45
2019-04-22T22:41:26.003Z,12.15
2019-04-22T22:44:03.199Z,12.47
2019-04-22T22:46:34.171Z,11.12
2019-04-22T22:49:18.544Z,12.07
2019-04-22T22:52:27.358Z,10.65
2019-04-22T22:54:18.442Z,11.50
2019-04-22T22:56:57.246Z,11.20
2019-04-22T22:59:18.569Z,12.05
2019-04-22T23:01:45.152Z,10.82
2019-04-22T23:04:26.444Z,10.48
2019-04-22T23:06:49.762Z,11.83
2019-04-22T23:09:21.992Z,10.58
2019-04-22T23:12:06.493Z,11.15
2019-04-22T23:14:20.871Z,10.75
2019-04-22T23:16:39.574Z,10.70
2019-04-22T23:19:02.727Z,11.63
2019-04-22T23:21:39.715Z,11.63
2019-04-22T23:24:22.696Z,11.03
2019-04-22T23:26:57.954Z,10.13
2019-04-22T23:29:26.223Z,10.60
2019-04-22T23:31:59.699Z,10.68
2019-04-22T23:34:38.063Z,12.25
2019-04-22T23:37:17.765Z,11.63
2019-04-22T23:40:04.124Z,12.47
2019-04-22T23:45:00.667Z,13.68
2019-04-22T23:47:23.836Z,11.73
2019-04-22T23:49:57.887Z,12.03
2019-04-22T23:52:28.690Z,11.28
2019-04-22T23:55:06.946Z,9.88
2019-04-22T23:57:33.915Z,10.28
